CFLLC CZBB-CYVR
Flight info
| Callsign | CFLLC |
|---|---|
| Flight time | N/A |
| Altitude | |
| Route | |
| Aircraft |
Departure
| Time | 2026-04-19 19:11 |
|---|---|
| Airport | Boundary Bay Airport (CZBB) |
Arrival
| Time | N/A |
|---|---|
| Airport | Vancouver International Airport (CYVR) |
| Time | Latitude | Longitude | Altitude | Speed | Heading |
|---|---|---|---|---|---|
| 2026-04-19 19:11 | 49.22705 | -122.93054 | 1091 ft | 105 kts | 285° |
| 2026-04-19 19:11 | 49.22458 | -122.94033 | 1090 ft | 106 kts | 215° |
| 2026-04-19 19:11 | 49.21812 | -122.94560 | 1101 ft | 105 kts | 210° |
| 2026-04-19 19:11 | 49.21165 | -122.95091 | 1103 ft | 105 kts | 209° |
| 2026-04-19 19:12 | 49.20519 | -122.95623 | 1104 ft | 106 kts | 209° |
| 2026-04-19 19:12 | 49.19871 | -122.96156 | 1107 ft | 105 kts | 212° |
| 2026-04-19 19:12 | 49.19467 | -122.97043 | 1102 ft | 104 kts | 240° |
| 2026-04-19 19:12 | 49.19017 | -122.97913 | 1104 ft | 104 kts | 232° |
| 2026-04-19 19:13 | 49.18558 | -122.98777 | 1108 ft | 105 kts | 232° |
| 2026-04-19 19:13 | 49.18095 | -122.99647 | 1106 ft | 106 kts | 232° |
| 2026-04-19 19:13 | 49.17645 | -123.00515 | 1106 ft | 105 kts | 239° |
| 2026-04-19 19:13 | 49.17526 | -123.01606 | 1111 ft | 104 kts | 276° |
| 2026-04-19 19:14 | 49.17472 | -123.02699 | 1066 ft | 108 kts | 256° |
| 2026-04-19 19:14 | 49.17285 | -123.03801 | 1020 ft | 107 kts | 260° |
| 2026-04-19 19:14 | 49.17210 | -123.04914 | 1046 ft | 104 kts | 272° |
| 2026-04-19 19:14 | 49.17276 | -123.06002 | 1077 ft | 100 kts | 278° |
| 2026-04-19 19:15 | 49.17385 | -123.07125 | 958 ft | 109 kts | 282° |
| 2026-04-19 19:15 | 49.17545 | -123.08249 | 899 ft | 110 kts | 285° |
| 2026-04-19 19:15 | 49.17743 | -123.09392 | 775 ft | 109 kts | 283° |
| 2026-04-19 19:15 | 49.17833 | -123.10458 | 712 ft | 97 kts | 277° |
| 2026-04-19 19:16 | 49.17934 | -123.11464 | 620 ft | 94 kts | 279° |
| 2026-04-19 19:16 | 49.18053 | -123.12425 | 505 ft | 92 kts | 282° |
| 2026-04-19 19:16 | 49.18179 | -123.13384 | 337 ft | 91 kts | 281° |
| 2026-04-19 19:16 | 49.18278 | -123.14313 | 189 ft | 90 kts | 283° |
| 2026-04-19 19:17 | 49.18376 | -123.15210 | 92 ft | 78 kts | 281° |
| 2026-04-19 19:17 | 49.18456 | -123.15926 | 33 ft | 59 kts | 281° |
| 2026-04-19 19:17 | 49.18520 | -123.16473 | 10 ft | 51 kts | 280° |
| 2026-04-19 19:17 | 49.18582 | -123.17165 | 106 ft | 74 kts | 280° |
| 2026-04-19 19:18 | 49.18671 | -123.17977 | 302 ft | 81 kts | 278° |